メインページ
METAR-TAF:

METAR-TAF

空港 :

ダラス / フォートワース, テキサス州, アメリカ合衆国

ダラス・フォートワース国際空港

緯度: 32-53-49N, 経度: 097-01-19W, 海抜: 183m

現時点の気象観測

当レポートは1時間15分前の20:53(UTC)に作成
の風 15kt
気温 26°C
湿度 54%
気圧 1008 hPa
視程: 16.1km
高度4800ftの千切れ雲あり
高度6000ftの曇り

METAR: KDFW 192053Z 18015KT 10SM BKN048 OVC060 26/16 A2977 RMK AO2 PK WND 18030/2029 SLP074 T02560161 56020

時間: 16:08 (22:08 UTC)

予報

当レポートは1時間4分前の21:04(UTC)に作成
予報は19日の 21時(UTC)から 20日の 24時(UTC)まで有効
の風 15kt、最大25ktの突風を伴う
視程: 10km
高度3500ftの千切れ雲あり
近辺でにわか雨
19日の 2300時(UTC)から
の風 16kt、最大26ktの突風を伴う
視程: 10km
高度3000ftの雲は散在している
高度4500ftの千切れ雲あり, 積乱雲.
小雨, 近辺で激しい雷雨
20日の 0200時(UTC)から
の風 18kt
視程: 10km
高度1800ftの曇り
20日の 0700時(UTC)から
の風 15kt、最大25ktの突風を伴う
視程: 10km
高度1500ftの曇り
弱いにわか雨
20日の 08時(UTC)から 20日の 12時(UTC)まで一時的に
視程: 6.4km
高度1500ftの曇り, 積乱雲.
激しい雷雨, 雨
20日の 1700時(UTC)から
の風 15kt、最大25ktの突風を伴う
視程: 9.7km
高度2500ftの曇り, 積乱雲.
にわか雨, 近辺で激しい雷雨

TAF: KDFW 192104Z 1921/2024 18015G25KT P6SM VCSH BKN035 FM192300 18016G26KT P6SM -RA VCTS SCT030 BKN045CB FM200200 17018KT P6SM OVC018 FM200700 17015G25KT P6SM -SHRA OVC015 TEMPO 2008/2012 4SM TSRA OVC015CB FM201700 17015G25KT 6SM SHRA VCTS OVC025CB

4,000以上の空港の気象観測と天気予報(METAR報とTAF報)

利用可能な観測所は地図上に黄色い丸と赤い丸で示す。

丸の上にカーソルを重ねると観測所名を参照できる。

次にクリックすると気象観測と天気予報を参照できる。

マップの切り替え:黒色「×」印の緑ボタンをクリックして拡大、「-」印の緑ボタンをクリックして縮小、緑色の三角印をクリックして隣りの地図に切り替え


METAR-TAF: